Flight Track Log - Related Links

Times and Time Zones

All times are in EDT time to prevent confusion due to time zone crossing. See the UAL1402 flight status page for this flight to view local times or setup timezone preferences in your user account.

Time Position Orientation Groundspeed Altitude Reporting Facility
EDT Latitude Longitude Course Direction KTS MPH feet Rate Location/Type
Tue 08:52:43 PM 33.9333 -118.4333 90° East 175 201 1,600  Level Southern California TRACON
Tue 08:53:20 PM 33.9158 -118.4772 244° Southwest 215 247 3,000 2,424 Climbing Los Angeles Center
Tue 08:54:22 PM 33.8661 -118.5467 229° Southwest 260 299 5,600 2,468 Climbing Los Angeles Center
Tue 08:55:00 PM 33.6934 -118.5293 134° Southeast  Level FlightAware Approximate
Tue 08:55:24 PM 33.7975 -118.5481 181° South 280 322 8,100  Level Los Angeles Center
Tue 08:56:00 PM 33.6564 -118.3961 121° Southeast  Level FlightAware Approximate
Tue 08:56:25 PM 33.7175 -118.5261 167° South 297 342 10,700  Level Los Angeles Center
Tue 08:57:00 PM 33.6334 -118.2604 90° East  Level FlightAware Approximate
Tue 08:57:27 PM 33.6639 -118.4125 120° Southeast 340 391 13,200  Level Los Angeles Center
Tue 08:58:29 PM 33.6428 -118.2975 102° East 370 426 15,300 2,032 Climbing Los Angeles Center
Tue 08:59:31 PM 33.6442 -118.1719 89° East 386 444 17,400 1,941 Climbing Los Angeles Center
Tue 09:00:45 PM 33.6442 -118.0419 90° East 393 452 19,700 2,277 Climbing Los Angeles Center
Tue 09:01:48 PM 33.6444 -117.8553 90° East 402 463 22,600 1,968 Climbing Los Angeles Center
Tue 09:02:50 PM 33.6431 -117.7178 91° East 412 474 23,800 823 Climbing Los Angeles Center
Tue 09:03:52 PM 33.6433 -117.5669 90° East 450 518 24,300 968 Climbing Los Angeles Center
Tue 09:04:54 PM 33.6422 -117.4097 90° East 471 542 25,800 1,220 Climbing Los Angeles Center
Tue 09:05:55 PM 33.6408 -117.2503 91° East 479 551 26,800 1,220 Climbing Los Angeles Center
Tue 09:06:57 PM 33.6400 -117.0878 90° East 491 565 28,300 1,645 Climbing Los Angeles Center
Tue 09:07:59 PM 33.6383 -116.8975 91° East 480 552 30,200 1,452 Climbing Los Angeles Center
Tue 09:09:01 PM 33.6317 -116.7547 93° East 479 551 31,300 1,065 Climbing Los Angeles Center
Tue 09:10:03 PM 33.6081 -116.6008 100° East 471 542 32,400 1,161 Climbing Los Angeles Center
Tue 09:11:05 PM 33.5783 -116.4133 101° East 475 547 33,700 1,548 Climbing Los Angeles Center
Tue 09:12:07 PM 33.5561 -116.2608 100° East 467 537 35,600 1,512 Climbing Los Angeles Center
Tue 09:13:08 PM 33.5333 -116.1156 101° East 446 513 36,800 634 Climbing Los Angeles Center
Tue 09:14:10 PM 33.5108 -115.9692 100° East 445 512 36,900 97 Climbing Los Angeles Center
Tue 09:15:12 PM 33.4864 -115.8222 101° East 450 518 37,000 48 Climbing Los Angeles Center
Tue 09:16:14 PM 33.4619 -115.6747 101° East 450 518 37,000 -48 Level Los Angeles Center
Tue 09:17:16 PM 33.4383 -115.5278 101° East 449 517 36,900 -48 Descending Los Angeles Center
Tue 09:18:18 PM 33.4164 -115.3806 100° East 449 517 36,900 44 Level Los Angeles Center
Tue 09:19:31 PM 33.3878 -115.2053 101° East 449 517 37,000 44 Climbing Los Angeles Center
Tue 09:20:34 PM 33.3594 -115.0319 101° East 444 511 37,000 -48 Level Los Angeles Center
Tue 09:21:35 PM 33.3344 -114.8867 102° East 446 513 36,900 -49 Descending Los Angeles Center
Tue 09:22:37 PM 33.3094 -114.7411 102° East 447 514 36,900 48 Level Los Angeles Center
Tue 09:23:39 PM 33.2867 -114.5950 101° East 446 513 37,000 48 Climbing Los Angeles Center
Tue 09:24:41 PM 33.2619 -114.4494 101° East 447 514 37,000 -64 Level Los Angeles Center
Tue 09:25:13 PM 33.2506 -114.3689 100° East 448 516 36,900  Descending Albuquerque Center
Tue 09:26:14 PM 33.2253 -114.2228 102° East 450 518 37,000 49 Climbing Albuquerque Center
Tue 09:27:15 PM 33.2000 -114.0778 102° East 447 514 37,000  Level Albuquerque Center
Tue 09:28:17 PM 33.1708 -113.9017 101° East 449 517 37,000 -49 Level Albuquerque Center
Tue 09:29:18 PM 33.1458 -113.7564 102° East 448 516 36,900  Descending Albuquerque Center
Tue 09:30:19 PM 33.1192 -113.6119 102° East 447 514 37,000 49 Climbing Albuquerque Center
Tue 09:31:21 PM 33.0936 -113.4658 102° East 448 516 37,000  Level Albuquerque Center
Tue 09:32:22 PM 33.0678 -113.3186 102° East 451 519 37,000  Level Albuquerque Center
Tue 09:33:23 PM 33.0411 -113.1711 102° East 453 521 37,000  Level Albuquerque Center
Tue 09:34:24 PM 33.0142 -113.0214 102° East 457 526 37,000 -49 Level Albuquerque Center
Tue 09:35:25 PM 32.9867 -112.8717 102° East 459 528 36,900  Descending Albuquerque Center
Tue 09:36:27 PM 32.9594 -112.7214 102° East 461 531 37,000  Climbing Albuquerque Center
Tue 09:37:28 PM 32.9314 -112.5719 103° East 460 529 36,900 -49 Descending Albuquerque Center
Tue 09:38:29 PM 32.9025 -112.4217 103° East 463 533 36,900 49 Level Albuquerque Center
Tue 09:39:30 PM 32.8742 -112.2722 103° East 463 533 37,000 49 Climbing Albuquerque Center
Tue 09:40:32 PM 32.8425 -112.0983 102° East 461 531 37,000  Level Albuquerque Center
Tue 09:41:33 PM 32.8142 -111.9500 103° East 462 532 37,000  Level Albuquerque Center
Tue 09:42:34 PM 32.7844 -111.7944 103° East 468 539 37,000 195 Level Albuquerque Center
Tue 09:43:36 PM 32.7561 -111.6508 103° East 465 535 37,400 537 Climbing Albuquerque Center
Tue 09:44:37 PM 32.7283 -111.5022 102° East 464 534 38,100 738 Climbing Albuquerque Center
Tue 09:45:38 PM 32.7000 -111.3547 103° East 462 532 38,900 443 Climbing Albuquerque Center
Tue 09:46:39 PM 32.6706 -111.2097 104° East 458 527 39,000 49 Climbing Albuquerque Center
Tue 09:47:41 PM 32.6419 -111.0606 103° East 462 532 39,000  Level Albuquerque Center
Tue 09:48:42 PM 32.6061 -110.8839 103° East 462 532 39,000  Level Albuquerque Center
Tue 09:49:43 PM 32.5756 -110.7375 104° East 461 531 39,000  Level Albuquerque Center
Tue 09:50:44 PM 32.5456 -110.5875 103° East 466 536 39,000  Level Albuquerque Center
Tue 09:51:46 PM 32.5156 -110.4383 103° East 468 539 39,000  Level Albuquerque Center
Tue 09:52:46 PM 32.4839 -110.2853 104° East 470 541 39,000  Level Albuquerque Center
Tue 09:53:48 PM 32.4533 -110.1361 104° East 469 540 39,000  Level Albuquerque Center
Tue 09:54:49 PM 32.4278 -109.9861 101° East 469 540 39,000  Level Albuquerque Center
Tue 09:55:50 PM 32.4061 -109.8367 100° East 466 536 39,000  Level Albuquerque Center
Tue 09:56:51 PM 32.3819 -109.6850 101° East 468 539 39,000  Level Albuquerque Center
Tue 09:57:52 PM 32.3533 -109.5053 101° East 467 537 39,000  Level Albuquerque Center
Tue 09:58:53 PM 32.3314 -109.3553 100° East 465 535 39,000  Level Albuquerque Center
Tue 09:59:54 PM 32.3081 -109.2075 101° East 462 532 39,000  Level Albuquerque Center
Tue 10:00:55 PM 32.2842 -109.0564 101° East 468 539 39,000  Level Albuquerque Center
Tue 10:01:56 PM 32.2600 -108.9061 101° East 469 540 39,000  Level Albuquerque Center
Tue 10:02:58 PM 32.2364 -108.7547 100° East 470 541 39,000  Level Albuquerque Center
Tue 10:03:59 PM 32.2125 -108.6039 101° East 472 543 39,000 -49 Level Albuquerque Center
Tue 10:05:00 PM 32.1864 -108.4425 101° East 476 548 38,900  Descending Albuquerque Center
Tue 10:06:01 PM 32.1619 -108.2986 101° East 476 548 39,000 49 Climbing Albuquerque Center
Tue 10:07:02 PM 32.1328 -108.1144 101° East 477 549 39,000  Level Albuquerque Center
Tue 10:08:03 PM 32.1106 -107.9836 101° East 478 550 39,000 -49 Level Albuquerque Center
Tue 10:09:04 PM 32.0794 -107.8003 101° East 478 550 38,900 -49 Descending Albuquerque Center
Tue 10:10:05 PM 32.0542 -107.6469 101° East 479 551 38,900 49 Level Albuquerque Center
Tue 10:11:07 PM 32.0286 -107.4950 101° East 477 549 39,000  Climbing Albuquerque Center
Tue 10:12:08 PM 32.0031 -107.3431 101° East 478 550 38,900  Descending Albuquerque Center
Tue 10:13:09 PM 31.9769 -107.1908 101° East 479 551 39,000 49 Climbing Albuquerque Center
Tue 10:14:10 PM 31.9517 -107.0389 101° East 477 549 39,000 -49 Level Albuquerque Center
Tue 10:15:11 PM 31.9239 -106.8844 102° East 483 556 38,900  Descending Albuquerque Center
Tue 10:16:12 PM 31.8969 -106.7314 102° East 483 556 39,000 49 Climbing Albuquerque Center
Tue 10:17:14 PM 31.8625 -106.5464 102° East 489 563 39,000  Level Albuquerque Center
Tue 10:18:15 PM 31.8347 -106.3856 101° East 501 577 39,000  Level Albuquerque Center
Tue 10:19:16 PM 31.8028 -106.2278 103° East 505 581 39,000  Level Albuquerque Center
Tue 10:20:17 PM 31.7636 -106.0700 106° East 501 577 39,000 -49 Level Albuquerque Center
Tue 10:21:18 PM 31.7244 -105.9153 107° East 495 570 38,900 -49 Descending Albuquerque Center
Tue 10:22:19 PM 31.6856 -105.7606 106° East 495 570 38,900  Level Albuquerque Center
Tue 10:23:21 PM 31.6464 -105.6064 107° East 494 568 38,900 49 Level Albuquerque Center
Tue 10:24:22 PM 31.6083 -105.4519 106° East 492 566 39,000 49 Climbing Albuquerque Center
Tue 10:25:23 PM 31.5694 -105.2967 106° East 494 568 39,000  Level Albuquerque Center
Tue 10:26:24 PM 31.5294 -105.1431 107° East 491 565 39,000 -49 Level Albuquerque Center
Tue 10:27:26 PM 31.4889 -104.9858 107° East 498 573 38,900  Descending Albuquerque Center
Tue 10:28:27 PM 31.4494 -104.8289 106° East 499 574 39,000  Climbing Albuquerque Center
Tue 10:29:28 PM 31.4008 -104.6400 107° East 502 578 38,900 -49 Descending Albuquerque Center
Tue 10:30:29 PM 31.3603 -104.4833 107° East 501 577 38,900 49 Level Albuquerque Center
Tue 10:31:30 PM 31.3189 -104.3286 107° East 500 575 39,000  Climbing Albuquerque Center
Tue 10:32:31 PM 31.2783 -104.1728 107° East 500 575 38,900  Descending Albuquerque Center
Tue 10:33:33 PM 31.2369 -104.0192 107° East 498 573 39,000 49 Climbing Albuquerque Center
Tue 10:34:34 PM 31.1961 -103.8653 107° East 498 573 39,000 -49 Level Albuquerque Center
Tue 10:35:35 PM 31.1511 -103.7083 108° East 495 570 38,900  Descending Albuquerque Center
Tue 10:36:36 PM 31.1100 -103.5572 108° East 492 566 39,000 49 Climbing Albuquerque Center
Tue 10:37:37 PM 31.0683 -103.4072 108° East 489 563 39,000 -49 Level Albuquerque Center
Tue 10:38:39 PM 31.0264 -103.2558 108° East 494 568 38,900  Descending Albuquerque Center
Tue 10:39:40 PM 30.9869 -103.1078 107° East 486 559 39,000  Climbing Albuquerque Center
Tue 10:40:41 PM 30.9461 -102.9600 108° East 482 555 38,900  Descending Albuquerque Center
Tue 10:41:42 PM 30.8975 -102.7794 107° East 487 560 39,000  Climbing Albuquerque Center
Tue 10:42:44 PM 30.8567 -102.6303 108° East 488 562 38,900 -49 Descending Albuquerque Center
Tue 10:43:45 PM 30.8161 -102.4844 108° East 483 556 38,900  Level Albuquerque Center
Tue 10:44:31 PM 30.7861 -102.3692 107° East 472 543 38,900 56 Level Houston Center
Tue 10:45:32 PM 30.7469 -102.2272 108° East 467 537 39,000 49 Climbing Houston Center
Tue 10:46:33 PM 30.7081 -102.0850 108° East 466 536 39,000  Level Houston Center
Tue 10:47:34 PM 30.6683 -101.9422 108° East 467 537 39,000 -49 Level Houston Center
Tue 10:48:35 PM 30.6289 -101.8006 108° East 465 535 38,900  Descending Houston Center
Tue 10:49:36 PM 30.5906 -101.6600 108° East 461 531 39,000  Climbing Houston Center
Tue 10:50:37 PM 30.5464 -101.5056 108° East 458 527 38,900 -49 Descending Houston Center
Tue 10:51:38 PM 30.5069 -101.3672 108° East 455 524 38,900  Level Houston Center
Tue 10:52:39 PM 30.4686 -101.2297 108° East 451 519 38,900 49 Level Houston Center
Tue 10:53:40 PM 30.4289 -101.0942 109° East 446 513 39,000 49 Climbing Houston Center
Tue 10:54:41 PM 30.3900 -100.9583 108° East 444 511 39,000 -49 Level Houston Center
Tue 10:55:42 PM 30.3511 -100.8219 108° East 445 512 38,900  Descending Houston Center
Tue 10:56:43 PM 30.3117 -100.6856 108° East 448 516 39,000 49 Climbing Houston Center
Tue 10:57:44 PM 30.2725 -100.5467 108° East 450 518 39,000 -49 Level Houston Center
Tue 10:58:45 PM 30.2319 -100.4075 109° East 453 521 38,900  Descending Houston Center
Tue 10:59:46 PM 30.1928 -100.2661 108° East 455 524 39,000 49 Climbing Houston Center
Tue 11:00:47 PM 30.1508 -100.1200 108° East 465 535 39,000 -49 Level Houston Center
Tue 11:01:48 PM 30.1064 -99.9794 110° East 463 533 38,900  Descending Houston Center
Tue 11:02:49 PM 30.0647 -99.8414 109° East 455 524 39,000 49 Climbing Houston Center
Tue 11:03:51 PM 30.0228 -99.7025 109° East 459 528 39,000  Level Houston Center
Tue 11:04:52 PM 29.9733 -99.5367 109° East 456 525 39,000  Level Houston Center
Tue 11:05:53 PM 29.9322 -99.3997 109° East 453 521 39,000  Level Houston Center
Tue 11:06:54 PM 29.8925 -99.2647 109° East 448 516 39,000  Level Houston Center
Tue 11:07:55 PM 29.8506 -99.1292 110° East 449 517 39,000  Level Houston Center
Tue 11:08:56 PM 29.8067 -98.9856 109° East 451 519 39,000 -148 Level Houston Center
Tue 11:09:57 PM 29.7650 -98.8514 110° East 449 517 38,700 -590 Descending Houston Center
Tue 11:10:58 PM 29.7228 -98.7153 110° East 451 519 37,800 -942 Descending Houston Center
Tue 11:11:58 PM 29.6781 -98.5664 109° East 457 526 36,800 -893 Descending Houston Center
Tue 11:12:59 PM 29.6469 -98.4492 107° East 468 539 36,000 -885 Descending Houston Center
Tue 11:14:00 PM 29.6481 -98.2658 90° East 475 547 35,000 -492 Descending Houston Center
Tue 11:15:01 PM 29.6494 -98.1172 89° East 467 537 35,000  Level Houston Center
Tue 11:16:02 PM 29.6508 -97.9694 89° East 463 533 35,000  Level Houston Center
Tue 11:17:03 PM 29.6531 -97.8222 89° East 464 534 35,000 -148 Level Houston Center
Tue 11:18:04 PM 29.6525 -97.6742 90° East 464 534 34,700 -590 Descending Houston Center
Tue 11:19:05 PM 29.6417 -97.5269 95° East 461 531 33,800 -1,377 Descending Houston Center
Tue 11:20:06 PM 29.6314 -97.3769 94° East 469 540 31,900 -2,066 Descending Houston Center
Tue 11:21:07 PM 29.6214 -97.2308 94° East 458 527 29,600 -2,164 Descending Houston Center
Tue 11:22:08 PM 29.6117 -97.0883 94° East 448 516 27,500 -2,115 Descending Houston Center
Tue 11:23:09 PM 29.6022 -96.9525 95° East 429 494 25,300 -2,164 Descending Houston Center
Tue 11:24:10 PM 29.5931 -96.8186 94° East 418 481 23,100 -2,115 Descending Houston Center
Tue 11:25:11 PM 29.5844 -96.6903 94° East 402 463 21,000 -2,016 Descending Houston Center
Tue 11:26:12 PM 29.5744 -96.5678 95° East 385 443 19,000 -1,967 Descending Houston Center
Tue 11:27:13 PM 29.5669 -96.4494 94° East 373 429 17,000 -2,016 Descending Houston Center
Tue 11:28:14 PM 29.5569 -96.3356 96° East 360 414 14,900 -2,182 Descending Houston Center
Tue 11:29:14 PM 29.5469 -96.2072 95° East 347 399 12,600 -1,388 Descending Houston Center
Tue 11:30:15 PM 29.5761 -96.1081 71° East 340 391 12,100 -295 Descending Houston Center
Tue 11:31:16 PM 29.6281 -96.0036 60° Northeast 378 435 12,000 -195 Descending Houston Center
Tue 11:32:18 PM 29.6803 -95.8994 60° Northeast 374 430 11,700 -984 Descending Houston Center
Tue 11:33:18 PM 29.7322 -95.7972 60° Northeast 370 426 10,000 -1,050 Descending Houston Center
Tue 11:34:18 PM 29.7761 -95.7078 61° Northeast 283 326 9,600 -678 Descending Houston Center
Tue 11:35:13 PM 29.8103 -95.6411 59° Northeast 282 325 8,700 -1,034 Descending Houston Center
Tue 11:36:14 PM 29.8511 -95.5592 60° Northeast 279 321 7,600 -1,289 Descending Houston Center
Tue 11:37:14 PM 29.8883 -95.4825 61° Northeast 272 313 6,100 -793 Descending Houston Center
Tue 11:38:15 PM 29.8956 -95.3997 84° East 256 295 6,000 -46 Descending Houston Center
Tue 11:39:24 PM 29.8969 -95.3169 89° East 255 293 6,000  Level Houston Center
Tue 11:40:24 PM 29.8967 -95.2444 90° East 233 268 6,000 -303 Level Houston Center
Tue 11:41:23 PM 29.8953 -95.1708 91° East 200 230 5,400 -1,000 Descending Houston Center
Tue 11:42:18 PM 29.8986 -95.1150 86° East 193 222 4,100 -1,418 Descending Houston Center

Login

Don't have an account? Register now (free) for customized features, flight alerts, and more!